Airfield :
LOGIN :

Register | Disclaimer

   EN    FR    IT 

 










Legend :    VFR   Marginal VFR   IFR   Intensive IFR   Very Intensive IFR
Visi :
Ceiling :
>= 8 km
>= 3000ft
5 to 8 km
1000 to 3000 ft
1500m to 5 km
500 to 1000 ft
800 to 1500m
200 to 500 ft
< 800m
< 200 ft
Symbols :   Thunderstorms  Fog  Heavy snow  Heavy precipitations  Wind > 20 kt
SIGMETs :     Misc.  Thunderstorms  Icing  Turbulence  Mountain Waves  Volcanic Ashes






- Airport Elevation : 622 ft
- IATA code : SVO


UUEE - Sheremetyevo International

CURRENT METAR :
  • 090730Z 24008MPS CAVOK 12/M02 Q1015 R24L/CLRD62 NOSIG

EXPIRED METARs :
  • 090700Z 24007MPS CAVOK 11/M01 Q1015 R24L/CLRD62 NOSIG
  • 090630Z 24005MPS CAVOK 10/M01 Q1016 R24L/CLRD62 NOSIG
  • 090600Z 24003MPS CAVOK 08/01 Q1016 R24L/CLRD62 NOSIG
  • 090530Z 21002MPS 180V250 CAVOK 06/02 Q1016 R24L/CLRD62 NOSIG
  • 090500Z 23002MPS CAVOK 04/02 Q1017 R24L/CLRD62 NOSIG

TAF TAF UUEE
Valid from the 09 at 06:00 until the 10 at 06:00 UTC


090450Z 0906/1006 22006MPS 9999 SCT020 TX13/0913Z TN03/1003Z
TEMPO 0906/0917 22008G13MPS
BECMG 0917/0918 OVC011
TEMPO 0918/1006 -SHRA FEW006 SCT015CB
BECMG 0923/1001 30007MPS



MET'MAP, your aeronautical weather chart ! - Copyright ORBIFLY December 2007 - Disclaimer

ORBIFLY MET'MAP TEAM :

Programming & Development : Alexandra Zaïnal
Concept & original design : Baudouin d'Aumeries
Assistance for programming : Marc-Olivier Méhu
Technical & hardware support : Manuel Goepfert

Contact : metmap@orbifly.com




SOURCES & CREDITS :

   NOAA